Latest Weather Observations for Innisfail Aero

IDQ60801

Issued at 8:02 am EST Monday 3 October 2022 (issued every 10 minutes, with the page automatically refreshed every 10 minutes)

About weather observations | Map of weather stations | Latest weather observations for QLD | Other Formats
Station Details ID: 032197 Name: INNISFAIL AERODROME Lat: -17.56 Lon: 146.01 Height: 11.84 m
Data from the previous 72 hours. | See also: Recent months at Innisfail Aero
Date/Time
EST
Temp
°C
App
Temp
°C
Dew
Point
°C
Rel
Hum
%
Delta-T
°C
Wind Press
QNH
hPa
Press
MSL
hPa
Rain since
9am
mm
Dir  Spd
km/h
Gust
km/h
Spd
kts
Gust
kts
03/08:00am 23.6 27.1 21.1 86 1.6 WNW 4 6 2 3 1013.9 1013.9 0.0
03/07:30am 21.9 26.1 20.9 94 0.7 CALM 0 0 0 0 1013.6 1013.6 0.0
03/07:00am 20.3 24.0 20.0 98 0.2 CALM 0 0 0 0 1013.1 1013.1 0.0
03/06:30am 19.0 22.1 18.7 98 0.2 CALM 0 0 0 0 1012.7 1012.7 0.0
03/06:02am 18.7 20.9 18.4 98 0.2 NNW 4 7 2 4 1012.6 1012.6 0.0
03/06:00am 18.7 21.3 18.4 98 0.2 NNW 2 7 1 4 1012.5 1012.5 0.0
03/05:48am 19.1 22.3 18.8 98 0.2 CALM 0 0 0 0 1012.2 1012.2 0.0
03/05:39am 18.3 21.1 18.0 98 0.2 CALM 0 0 0 0 1012.1 1012.1 0.0
03/05:38am 18.4 21.3 18.1 98 0.2 CALM 0 0 0 0 1012.1 1012.1 0.0
03/05:30am 18.9 22.0 18.6 98 0.2 CALM 0 0 0 0 1011.9 1011.9 0.0
03/05:00am 19.1 22.3 18.8 98 0.2 CALM 0 0 0 0 1011.6 1011.6 0.0
03/04:54am 18.4 21.2 17.9 97 0.3 CALM 0 0 0 0 1011.7 1011.7 0.0
03/04:49am 18.2 20.8 17.6 96 0.4 CALM 0 0 0 0 1011.7 1011.7 0.0
03/04:30am 19.1 22.2 18.6 97 0.3 CALM 0 0 0 0 1011.6 1011.6 0.0
03/04:17am 19.6 22.5 19.1 97 0.3 NNW 2 6 1 3 1011.4 1011.4 0.0
03/04:00am 19.8 22.0 19.3 97 0.3 NNE 6 6 3 3 1011.5 1011.5 0.0
03/03:52am 19.8 22.0 19.3 97 0.3 NNE 6 7 3 4 1011.4 1011.4 0.0
03/03:30am 20.1 23.5 19.4 96 0.4 CALM 0 0 0 0 1011.5 1011.5 0.0
03/03:00am 20.2 23.3 19.5 96 0.4 ENE 2 7 1 4 1011.8 1011.8 0.0
03/02:30am 20.7 23.7 20.0 96 0.4 WNW 4 6 2 3 1011.6 1011.6 0.0
03/02:00am 21.0 23.7 20.3 96 0.5 NW 6 7 3 4 1011.9 1011.9 0.0
03/01:30am 21.4 24.3 20.6 95 0.5 NNW 6 7 3 4 1011.9 1011.9 0.0
03/01:00am 21.5 25.6 20.7 95 0.5 CALM 0 0 0 0 1012.2 1012.2 0.0
03/12:30am 21.4 25.3 20.4 94 0.6 CALM 0 0 0 0 1012.6 1012.6 0.0
03/12:00am 21.0 23.7 20.2 95 0.5 NNW 6 7 3 4 1012.8 1012.8 0.0
 
Date/Time
EST
Temp
°C
App
Temp
°C
Dew
Point
°C
Rel
Hum
%
Delta-T
°C
Wind Press
QNH
hPa
Press
MSL
hPa
Rain since
9am
mm
Dir  Spd
km/h
Gust
km/h
Spd
kts
Gust
kts
02/11:30pm 20.8 24.4 19.8 94 0.6 CALM 0 0 0 0 1013.3 1013.3 0.0
02/11:00pm 20.7 24.4 19.9 95 0.5 CALM 0 2 0 1 1013.5 1013.5 0.0
02/10:30pm 20.8 23.1 19.5 92 0.8 W 6 7 3 4 1013.6 1013.6 0.0
02/10:00pm 21.2 23.6 19.7 91 1.0 W 6 7 3 4 1013.6 1013.6 0.0
02/09:30pm 21.0 23.4 19.7 92 0.8 ESE 6 6 3 3 1013.5 1013.5 0.0
02/09:00pm 20.9 23.5 19.2 90 1.1 ESE 4 7 2 4 1013.4 1013.4 0.0
02/08:30pm 21.4 23.7 19.5 89 1.2 ESE 6 6 3 3 1012.8 1012.8 0.0
02/08:00pm 22.4 26.0 19.8 85 1.7 CALM 0 0 0 0 1012.6 1012.6 0.0
02/07:30pm 23.0 25.4 19.6 81 2.2 ESE 6 7 3 4 1012.4 1012.4 0.0
02/07:00pm 23.3 25.6 19.5 79 2.4 ESE 6 7 3 4 1012.1 1012.1 0.0
02/06:30pm 23.8 25.9 19.3 76 2.9 ESE 7 9 4 5 1011.8 1011.8 0.0
02/06:00pm 24.6 26.3 19.4 73 3.3 E 9 11 5 6 1011.3 1011.3 0.0
02/05:30pm 25.5 26.5 19.4 69 3.9 E 13 15 7 8 1011.0 1011.0 0.0
02/05:00pm 25.6 26.1 19.3 68 4.1 ENE 15 20 8 11 1010.6 1010.6 0.0
02/04:30pm 27.0 28.0 20.3 66 4.4 E 15 20 8 11 1010.4 1010.4 0.0
02/04:00pm 27.2 27.9 20.5 67 4.4 E 17 20 9 11 1010.0 1010.0 0.0
02/03:30pm 27.0 27.9 20.1 66 4.5 ESE 15 20 8 11 1010.0 1010.0 0.0
02/03:00pm 28.1 29.3 19.9 61 5.4 ENE 13 20 7 11 1010.1 1010.1 0.0
02/02:30pm 27.5 27.5 19.8 63 5.0 E 19 24 10 13 1010.2 1010.2 0.0
02/02:00pm 27.9 27.6 19.1 58 5.7 E 19 35 10 19 1010.4 1010.4 0.0
02/01:30pm 28.1 28.6 19.3 58 5.7 E 15 22 8 12 1010.6 1010.6 0.0
02/01:00pm 28.3 27.8 18.7 56 6.2 E 19 26 10 14 1010.9 1010.9 0.0
02/12:30pm 28.3 28.8 19.2 57 5.9 E 15 24 8 13 1011.2 1011.2 0.0
02/12:00pm 28.0 28.1 19.2 58 5.7 E 17 26 9 14 1011.6 1011.6 0.0
02/11:30am 28.1 29.2 19.6 60 5.5 ESE 13 20 7 11 1012.0 1012.0 0.0
02/11:00am 27.9 29.2 19.4 60 5.5 ENE 11 19 6 10 1012.7 1012.7 0.0
02/10:30am 27.7 30.2 20.3 64 4.9 ENE 7 15 4 8 1012.8 1012.8 0.0
02/10:00am 26.4 28.2 18.8 63 4.9 SSE 7 9 4 5 1013.0 1013.0 0.0
02/09:30am 25.6 27.2 18.3 64 4.6 W 7 9 4 5 1013.4 1013.4 0.0
02/09:00am 25.3 27.5 19.2 69 3.9 N 6 7 3 4 1013.5 1013.5 0.0
02/08:30am 24.1 27.0 19.0 73 3.2 NW 2 6 1 3 1013.6 1013.6 0.0
02/08:00am 22.2 24.1 19.0 82 2.0 NW 7 9 4 5 1013.6 1013.6 0.0
02/07:30am 20.1 21.8 18.6 91 0.9 NW 7 9 4 5 1013.2 1013.2 0.0
02/07:00am 18.1 19.7 17.9 99 0.1 NNW 6 7 3 4 1012.7 1012.7 0.0
02/06:30am 15.8 15.9 15.5 98 0.2 NNE 9 11 5 6 1012.5 1012.5 0.0
02/06:00am 16.5 18.2 16.2 98 0.2 WNW 2 6 1 3 1012.6 1012.6 0.0
02/05:30am 16.6 18.7 16.3 98 0.2 CALM 0 0 0 0 1012.3 1012.3 0.0
02/05:00am 16.8 19.0 16.5 98 0.2 CALM 0 0 0 0 1012.0 1012.0 0.0
02/04:30am 17.0 19.3 16.7 98 0.2 CALM 0 0 0 0 1011.9 1011.9 0.0
02/04:00am 16.8 19.0 16.5 98 0.2 CALM 0 0 0 0 1011.7 1011.7 0.0
02/03:30am 17.0 19.3 16.7 98 0.2 CALM 0 0 0 0 1011.9 1011.9 0.0
02/03:00am 16.3 17.1 15.8 97 0.3 NNW 6 7 3 4 1011.6 1011.6 0.0
02/02:30am 17.0 17.9 16.5 97 0.3 NW 7 7 4 4 1011.8 1011.8 0.0
02/02:00am 17.4 17.7 16.9 97 0.3 W 11 13 6 7 1012.0 1012.0 0.0
02/01:30am 15.9 16.2 14.9 94 0.6 NNW 7 9 4 5 1012.5 1012.5 0.0
02/01:00am 17.7 18.4 17.1 96 0.4 SW 9 11 5 6 1013.1 1013.1 0.0
02/12:30am 17.9 20.4 17.3 96 0.4 CALM 0 0 0 0 1013.5 1013.5 0.0
02/12:00am 18.0 20.6 17.4 96 0.4 CALM 0 0 0 0 1013.7 1013.7 0.0
 
Date/Time
EST
Temp
°C
App
Temp
°C
Dew
Point
°C
Rel
Hum
%
Delta-T
°C
Wind Press
QNH
hPa
Press
MSL
hPa
Rain since
9am
mm
Dir  Spd
km/h
Gust
km/h
Spd
kts
Gust
kts
01/11:30pm 18.4 21.1 17.8 96 0.4 CALM 0 0 0 0 1013.8 1013.8 0.0
01/11:00pm 18.3 20.0 17.1 93 0.7 N 4 6 2 3 1013.9 1013.9 0.0
01/10:30pm 18.6 21.1 17.3 92 0.8 CALM 0 6 0 3 1013.8 1013.8 0.0
01/10:00pm 18.1 19.1 16.4 90 1.0 NNW 6 7 3 4 1013.7 1013.7 0.0
01/09:30pm 20.1 20.8 17.9 87 1.4 SW 11 13 6 7 1013.7 1013.7 0.0
01/09:00pm 19.6 20.2 17.6 88 1.2 SW 11 13 6 7 1013.7 1013.7 0.0
01/08:30pm 20.3 20.8 17.5 84 1.7 SW 11 11 6 6 1013.4 1013.4 0.0
01/08:00pm 20.9 22.2 17.5 81 2.1 SW 7 9 4 5 1013.2 1013.2 0.0
01/07:30pm 21.4 22.7 17.6 79 2.3 S 7 11 4 6 1013.1 1013.1 0.0
01/07:00pm 22.0 23.3 17.2 74 2.9 SE 6 7 3 4 1012.6 1012.6 0.0
01/06:30pm 22.9 23.9 16.9 69 3.7 ESE 7 11 4 6 1012.2 1012.2 0.0
01/06:00pm 23.9 24.3 17.2 66 4.1 SE 11 15 6 8 1012.1 1012.1 0.0
01/05:30pm 24.4 24.9 17.4 65 4.4 ESE 11 15 6 8 1011.9 1011.9 0.0
01/05:00pm 24.8 24.8 17.3 63 4.7 ESE 13 17 7 9 1011.7 1011.7 0.0
01/04:30pm 25.2 24.9 17.4 62 4.9 ESE 15 20 8 11 1011.5 1011.5 0.0
01/04:00pm 25.8 25.5 17.4 59 5.3 ESE 15 20 8 11 1011.2 1011.2 0.0
01/03:30pm 26.2 25.7 17.8 60 5.3 SE 17 22 9 12 1011.3 1011.3 0.0
01/03:00pm 26.8 25.9 17.8 57 5.7 SE 19 24 10 13 1011.5 1011.5 0.0
01/02:30pm 27.7 26.7 17.5 53 6.4 E 19 28 10 15 1011.8 1011.8 0.0
01/02:00pm 28.0 27.0 17.5 52 6.6 E 19 24 10 13 1012.1 1012.1 0.0
01/01:30pm 28.1 27.4 17.3 52 6.8 E 17 26 9 14 1012.5 1012.5 0.0
01/01:00pm 28.0 27.2 17.2 51 6.8 E 17 28 9 15 1013.3 1013.3 0.0
01/12:30pm 27.6 27.2 18.0 55 6.1 E 17 26 9 14 1013.6 1013.6 0.0
01/12:00pm 27.7 28.3 19.5 61 5.3 ESE 15 24 8 13 1014.1 1014.1 0.0
01/11:30am 26.6 26.5 17.9 59 5.5 ESE 15 22 8 12 1014.6 1014.6 0.0
01/11:00am 27.7 28.5 19.8 62 5.1 E 15 22 8 12 1014.6 1014.6 0.0
01/10:30am 26.4 28.2 18.8 63 4.9 E 7 13 4 7 1015.0 1015.0 0.0
01/10:00am 26.2 27.0 17.3 58 5.6 ENE 9 15 5 8 1015.2 1015.2 0.0
01/09:30am 26.4 28.2 18.3 61 5.1 E 6 11 3 6 1015.4 1015.4 0.0
01/09:00am 25.9 28.7 18.8 65 4.5 SSE 2 6 1 3 1015.3 1015.3 0.0
01/08:30am 23.6 25.8 19.3 77 2.7 N 6 9 3 5 1015.4 1015.4 0.0
01/08:00am 22.0 25.7 19.9 88 1.3 CALM 0 0 0 0 1015.4 1015.4 0.0
01/07:30am 19.2 22.3 18.7 97 0.3 CALM 0 0 0 0 1014.8 1014.8 0.0
01/07:29am 19.2 22.3 18.7 97 0.3 CALM 0 0 0 0 1014.8 1014.8 0.0
01/07:05am 18.3 21.2 18.1 99 0.1 CALM 0 0 0 0 1014.4 1014.4 0.0
01/07:00am 18.2 21.0 18.0 99 0.1 CALM 0 0 0 0 1014.4 1014.4 0.0
01/06:30am 16.2 18.2 15.9 98 0.2 CALM 0 0 0 0 1014.4 1014.4 0.0
01/06:00am 15.9 17.0 15.6 98 0.2 NNW 4 7 2 4 1014.1 1014.1 0.0
01/05:30am 15.8 17.2 15.5 98 0.2 W 2 6 1 3 1013.9 1013.9 0.0
01/05:00am 15.7 17.1 15.4 98 0.2 WNW 2 7 1 4 1013.4 1013.4 0.0
01/04:30am 16.4 18.4 16.1 98 0.2 CALM 0 0 0 0 1013.1 1013.1 0.0
01/04:16am 16.7 18.9 16.4 98 0.2 CALM 0 0 0 0 1012.9 1012.9 0.0
01/04:00am 16.5 18.6 16.2 98 0.2 CALM 0 0 0 0 1013.0 1013.0 0.0
01/03:55am 16.1 18.0 15.8 98 0.2 CALM 0 0 0 0 1013.0 1013.0 0.0
01/03:30am 15.6 17.3 15.1 97 0.3 CALM 0 0 0 0 1013.2 1013.2 0.0
01/03:00am 16.7 18.9 16.4 98 0.2 CALM 0 0 0 0 1013.3 1013.3 0.0
01/02:30am 16.9 19.1 16.6 98 0.2 CALM 0 0 0 0 1013.3 1013.3 0.0
01/02:00am 16.9 18.7 16.4 97 0.3 WNW 2 6 1 3 1013.5 1013.5 0.0
01/01:30am 17.0 18.1 16.5 97 0.3 WNW 6 7 3 4 1014.0 1014.0 0.0
01/01:00am 17.1 18.0 16.6 97 0.3 WNW 7 9 4 5 1014.3 1014.3 0.0
01/12:30am 17.2 18.1 16.1 93 0.7 W 6 9 3 5 1014.4 1014.4 0.0
01/12:00am 17.9 20.4 17.3 96 0.4 CALM 0 0 0 0 1014.6 1014.6 0.0
 
Date/Time
EST
Temp
°C
App
Temp
°C
Dew
Point
°C
Rel
Hum
%
Delta-T
°C
Wind Press
QNH
hPa
Press
MSL
hPa
Rain since
9am
mm
Dir  Spd
km/h
Gust
km/h
Spd
kts
Gust
kts
30/11:30pm 18.2 20.8 17.4 95 0.5 CALM 0 0 0 0 1014.7 1014.7 0.0
30/11:00pm 18.7 20.2 17.7 94 0.6 WSW 6 7 3 4 1015.0 1015.0 0.0
30/10:30pm 19.1 19.7 17.6 91 0.9 SW 11 13 6 7 1015.0 1015.0 0.0
30/10:00pm 18.8 18.9 17.5 92 0.8 SW 13 15 7 8 1015.0 1015.0 0.0
30/09:30pm 19.8 20.4 17.8 88 1.2 WSW 11 13 6 7 1015.0 1015.0 0.0
30/09:00pm 19.4 20.3 17.5 89 1.2 SW 9 9 5 5 1015.0 1015.0 0.0
30/08:30pm 20.3 21.4 18.1 87 1.4 WSW 9 11 5 6 1015.0 1015.0 0.0
30/08:00pm 20.6 22.2 18.2 86 1.5 SW 7 9 4 5 1014.8 1014.8 0.0
30/07:30pm 21.4 22.9 18.0 81 2.1 SSE 7 9 4 5 1014.6 1014.6 0.0
30/07:00pm 21.5 22.6 18.1 81 2.1 SSE 9 11 5 6 1014.4 1014.4 0.0
30/06:30pm 23.0 24.1 18.1 74 3.1 SE 9 11 5 6 1014.2 1014.2 0.0
30/06:00pm 24.2 24.5 17.9 68 3.9 SE 13 19 7 10 1013.9 1013.9 0.0
30/05:30pm 24.8 24.8 18.0 66 4.3 SE 15 19 8 10 1013.5 1013.5 0.0
30/05:00pm 25.2 24.9 18.2 65 4.4 SE 17 24 9 13 1013.4 1013.4 0.0
30/04:30pm 26.1 25.2 18.2 61 5.0 ESE 20 32 11 17 1013.3 1013.3 0.0
30/04:00pm 26.0 24.4 17.4 59 5.4 SSE 22 28 12 15 1013.2 1013.2 0.0
30/03:30pm 27.1 26.6 18.7 60 5.4 SE 19 28 10 15 1013.2 1013.2 0.0
30/03:00pm 26.7 26.3 18.8 62 5.1 SE 19 26 10 14 1013.5 1013.5 0.0
30/02:30pm 26.5 25.8 18.6 62 5.0 SE 20 26 11 14 1013.8 1013.8 0.0
30/02:00pm 27.0 26.3 18.3 59 5.5 SE 19 32 10 17 1014.1 1014.1 0.0
30/01:30pm 27.1 26.1 17.6 56 6.0 SE 19 32 10 17 1014.3 1014.3 0.0
30/01:00pm 27.1 26.1 17.6 56 6.0 SE 19 24 10 13 1014.6 1014.6 0.0
30/12:30pm 27.1 26.0 17.3 55 6.1 SE 19 32 10 17 1015.1 1015.1 0.0
30/12:00pm 27.6 27.9 19.7 62 5.1 SE 17 28 9 15 1015.7 1015.7 0.0
30/11:30am 26.9 26.8 17.9 57 5.7 ESE 15 26 8 14 1016.2 1016.2 0.0
30/11:00am 26.3 26.3 18.9 63 4.7 SE 17 22 9 12 1016.8 1016.8 0.0
30/10:30am 26.5 26.5 17.3 57 5.8 SSE 13 24 7 13 1017.2 1017.2 0.0
30/10:00am 26.7 26.9 18.6 61 5.2 SSE 15 24 8 13 1017.4 1017.4 0.0
30/09:30am 26.5 28.2 20.1 68 4.2 SE 11 20 6 11 1017.3 1017.3 0.0
30/09:00am 25.4 27.4 20.0 72 3.5 SW 9 17 5 9 1017.4 1017.4 0.0
30/08:30am 24.3 27.2 19.8 76 2.9 WSW 4 9 2 5 1017.3 1017.3 0.0

Other formats

Comma delimited format used in spreadsheet applications
http://www.bom.gov.au/fwo/IDQ60801/IDQ60801.94280.axf

JavaScript Object Notation format (JSON) in row-major order
http://www.bom.gov.au/fwo/IDQ60801/IDQ60801.94280.json

Data quality

Most of these data are generated automatically and are frequently updated. Quality checks on data are not normally performed. It is possible for incorrect values to appear. Refer to information at About Latest Weather Observations and please check the disclaimer before using these data.